Time;durP1;ratioP1;P1;durP2;ratioP2;P2;SDS_P1;SDS_P2;PMS_P1;PMS_P2;Temp;Humidity;BMP_temperature;BMP_pressure;BME280_temperature;BME280_humidity;BME280_pressure;Samples;Min_cycle;Max_cycle;Signal;HPM_P1;HPM_P2
2021/07/14 00:03:53;;;;;;;29.42;26.30;;;20.00;99.90;;;;;;12451813;28;20087;-41
2021/07/14 00:10:14;;;;;;;28.00;24.80;;;20.00;99.90;;;;;;12452362;28;20042;-41
2021/07/14 00:22:38;;;;;;;32.42;28.25;;;20.10;99.90;;;;;;12449800;28;20913;-41
2021/07/14 00:28:42;;;;;;;36.60;32.80;;;20.00;99.90;;;;;;12449123;28;20057;-40
2021/07/14 00:34:44;;;;;;;36.47;32.55;;;20.00;99.90;;;;;;12452715;28;20595;-41
2021/07/14 00:40:46;;;;;;;37.53;33.53;;;19.90;99.90;;;;;;12452251;28;20144;-43
2021/07/14 00:46:49;;;;;;;37.67;32.72;;;19.90;99.90;;;;;;12445405;28;20103;-42
2021/07/14 00:52:51;;;;;;;39.27;35.07;;;19.90;99.90;;;;;;12449660;28;20053;-41
2021/07/14 00:58:55;;;;;;;37.70;33.65;;;19.90;99.90;;;;;;12454908;28;20079;-45
2021/07/14 01:04:59;;;;;;;40.65;33.97;;;19.90;99.90;;;;;;12449016;28;20912;-42
2021/07/14 01:11:10;;;;;;;38.22;32.97;;;19.90;99.90;;;;;;12451676;28;20092;-43
2021/07/14 01:17:18;;;;;;;38.78;34.20;;;20.00;99.90;;;;;;12446802;28;20056;-41
2021/07/14 01:23:57;;;;;;;37.88;33.25;;;20.00;99.90;;;;;;12450760;28;20387;-42
2021/07/14 01:30:01;;;;;;;38.60;34.33;;;19.90;99.90;;;;;;12447283;28;20120;-41
2021/07/14 01:36:11;;;;;;;40.50;35.30;;;19.90;99.90;;;;;;12445583;28;20057;-40
2021/07/14 01:42:14;;;;;;;39.50;35.20;;;19.80;99.90;;;;;;12444444;28;21597;-42
2021/07/14 01:48:17;;;;;;;40.28;33.90;;;19.80;99.90;;;;;;12443378;28;20049;-44
2021/07/14 01:54:22;;;;;;;46.65;38.40;;;19.80;99.90;;;;;;12444555;28;20053;-43
2021/07/14 02:00:26;;;;;;;39.75;34.60;;;19.80;99.90;;;;;;12439040;28;20053;-42
2021/07/14 02:06:28;;;;;;;43.88;36.17;;;19.80;99.90;;;;;;12441818;28;20845;-40
2021/07/14 02:12:31;;;;;;;44.42;36.17;;;19.80;99.90;;;;;;12442562;28;20114;-41
2021/07/14 02:18:39;;;;;;;45.07;36.43;;;19.90;99.90;;;;;;12440611;28;20046;-41
2021/07/14 02:24:41;;;;;;;45.08;37.30;;;19.90;99.90;;;;;;12443043;28;20042;-42
2021/07/14 02:30:44;;;;;;;45.13;37.35;;;19.80;99.90;;;;;;12441975;28;20457;-42
2021/07/14 02:36:47;;;;;;;;;;;19.80;99.90;;;;;;12442898;28;20049;-40
2021/07/14 02:42:53;;;;;;;48.00;39.53;;;19.80;99.90;;;;;;12442425;28;19944;-42
2021/07/14 02:48:59;;;;;;;44.20;35.83;;;19.90;99.90;;;;;;12446814;28;20041;-42
2021/07/14 02:55:04;;;;;;;47.72;37.97;;;19.90;99.90;;;;;;12435887;28;20127;-42
2021/07/14 03:01:06;;;;;;;39.00;33.63;;;19.80;99.90;;;;;;12441156;28;20046;-42
2021/07/14 03:07:09;;;;;;;48.38;37.92;;;19.80;99.90;;;;;;12435748;28;20050;-41
2021/07/14 03:13:12;;;;;;;48.73;38.83;;;19.90;99.90;;;;;;12447843;28;20441;-40
2021/07/14 03:19:15;;;;;;;41.33;35.30;;;19.70;99.90;;;;;;12438261;28;20820;-41
2021/07/14 03:25:18;;;;;;;49.33;39.78;;;19.70;99.90;;;;;;12441076;28;20143;-43
2021/07/14 03:31:20;;;;;;;48.83;38.92;;;19.70;99.90;;;;;;12438374;28;20069;-41
2021/07/14 03:37:22;;;;;;;48.65;37.65;;;19.70;99.90;;;;;;12440299;28;20053;-40
2021/07/14 03:43:26;;;;;;;47.47;38.25;;;19.70;99.90;;;;;;12441239;28;20045;-40
2021/07/14 03:49:29;;;;;;;42.38;35.55;;;19.70;99.90;;;;;;12437037;28;20107;-47
2021/07/14 03:55:31;;;;;;;45.25;36.25;;;19.70;99.90;;;;;;12433807;28;20050;-46
2021/07/14 04:01:33;;;;;;;51.60;38.25;;;19.80;99.90;;;;;;12436682;28;20102;-43
2021/07/14 04:07:37;;;;;;;54.92;39.08;;;19.80;99.90;;;;;;12437891;28;20778;-44
2021/07/14 04:13:40;;;;;;;54.53;39.65;;;19.70;99.90;;;;;;12436295;28;20042;-44
2021/07/14 04:19:42;;;;;;;54.13;39.43;;;19.60;99.90;;;;;;12437076;28;20153;-43
2021/07/14 04:25:44;;;;;;;56.60;40.33;;;19.60;99.90;;;;;;12435278;28;20682;-43
2021/07/14 04:31:46;;;;;;;62.30;40.10;;;19.60;99.90;;;;;;12434995;28;20037;-43
2021/07/14 04:37:49;;;;;;;54.97;38.67;;;19.50;99.90;;;;;;12436934;28;20076;-44
2021/07/14 04:43:51;;;;;;;57.97;41.45;;;19.60;99.90;;;;;;12443541;28;20053;-43
2021/07/14 04:49:53;;;;;;;60.58;41.42;;;19.60;99.90;;;;;;12444048;28;20046;-43
2021/07/14 04:55:55;;;;;;;54.90;41.50;;;19.70;99.90;;;;;;12434790;28;20049;-44
2021/07/14 05:01:56;;;;;;;57.58;39.00;;;19.60;99.90;;;;;;12446380;28;20203;-43
2021/07/14 05:07:58;;;;;;;61.65;41.38;;;19.60;99.90;;;;;;12445938;28;20433;-42
2021/07/14 05:14:00;;;;;;;57.13;41.83;;;19.60;99.90;;;;;;12446019;28;20057;-43
2021/07/14 05:20:03;;;;;;;62.97;43.08;;;19.70;99.90;;;;;;12446751;28;20184;-43
2021/07/14 05:26:05;;;;;;;62.50;43.03;;;19.60;99.90;;;;;;12436747;28;20041;-43
2021/07/14 05:32:07;;;;;;;74.05;44.50;;;19.60;99.90;;;;;;12439021;28;20469;-43
2021/07/14 05:38:09;;;;;;;63.40;41.38;;;19.60;99.90;;;;;;12436834;28;20087;-43
2021/07/14 05:44:11;;;;;;;68.38;43.85;;;19.50;99.90;;;;;;12436733;28;20050;-43
2021/07/14 05:50:12;;;;;;;65.60;43.10;;;19.60;99.90;;;;;;12439435;28;20191;-42
2021/07/14 05:56:14;;;;;;;75.85;42.63;;;19.60;99.90;;;;;;12447236;28;20176;-43
2021/07/14 06:02:19;;;;;;;57.03;38.88;;;19.50;99.90;;;;;;12445405;28;20057;-43
2021/07/14 06:08:21;;;;;;;62.47;40.35;;;19.60;99.90;;;;;;12448975;28;20394;-44
2021/07/14 06:14:22;;;;;;;57.47;38.22;;;19.60;99.90;;;;;;12444397;28;20053;-43
2021/07/14 06:20:24;;;;;;;55.05;35.95;;;19.60;99.90;;;;;;12442984;28;20102;-42
2021/07/14 06:26:26;;;;;;;57.25;37.45;;;19.60;99.90;;;;;;12444995;28;20054;-43
2021/07/14 06:32:28;;;;;;;63.17;39.67;;;19.60;99.90;;;;;;12443442;28;20053;-42
2021/07/14 06:38:30;;;;;;;74.03;41.28;;;19.60;99.90;;;;;;12437562;28;20045;-42
2021/07/14 06:44:36;;;;;;;64.10;40.38;;;19.60;99.90;;;;;;12435476;28;20095;-42
2021/07/14 06:50:38;;;;;;;70.28;42.97;;;19.60;99.90;;;;;;12441363;28;20541;-44
2021/07/14 06:56:40;;;;;;;68.95;41.95;;;19.60;99.90;;;;;;12446355;28;20088;-44
2021/07/14 07:02:43;;;;;;;72.00;43.58;;;19.70;99.90;;;;;;12443373;28;20097;-43
2021/07/14 07:08:45;;;;;;;80.30;43.35;;;19.70;99.90;;;;;;12437618;28;20045;-43
2021/07/14 07:14:47;;;;;;;94.53;47.72;;;19.70;99.90;;;;;;12440371;28;20575;-44
2021/07/14 07:20:49;;;;;;;95.55;45.17;;;19.60;99.90;;;;;;12447772;28;20107;-41
2021/07/14 07:26:52;;;;;;;93.30;48.40;;;19.60;99.90;;;;;;12440616;28;20083;-42
2021/07/14 07:32:54;;;;;;;90.68;46.55;;;19.60;99.90;;;;;;12442656;28;20053;-40
2021/07/14 07:38:56;;;;;;;92.30;47.95;;;19.70;99.90;;;;;;12439953;28;20053;-41
2021/07/14 07:44:58;;;;;;;119.60;50.78;;;19.60;99.90;;;;;;12434539;28;20107;-40
2021/07/14 07:51:00;;;;;;;115.85;50.33;;;19.60;99.90;;;;;;12441502;28;20539;-40
2021/07/14 07:57:02;;;;;;;104.07;49.63;;;19.60;99.90;;;;;;12435715;28;20077;-41
2021/07/14 08:03:04;;;;;;;97.85;50.90;;;19.60;99.90;;;;;;12434249;28;20053;-41
2021/07/14 08:09:06;;;;;;;101.18;51.10;;;19.70;99.90;;;;;;12440363;28;20046;-41
2021/07/14 08:15:09;;;;;;;110.20;51.22;;;19.70;99.90;;;;;;12437286;28;20057;-41
2021/07/14 08:21:11;;;;;;;107.18;52.22;;;19.70;99.90;;;;;;12451339;28;20103;-40
2021/07/14 08:27:13;;;;;;;113.00;52.65;;;19.70;99.90;;;;;;12450080;28;20077;-40
2021/07/14 08:33:15;;;;;;;92.85;49.13;;;19.70;99.90;;;;;;12446892;28;20072;-41
2021/07/14 08:39:18;;;;;;;105.30;50.93;;;19.80;99.90;;;;;;12447040;28;20112;-40
2021/07/14 08:45:20;;;;;;;78.97;44.63;;;19.80;99.90;;;;;;12437467;28;20115;-41
2021/07/14 08:51:22;;;;;;;85.32;49.15;;;19.80;99.90;;;;;;12449726;28;20540;-41
2021/07/14 08:57:25;;;;;;;88.85;48.10;;;19.80;99.90;;;;;;12448196;28;20094;-41
2021/07/14 09:03:28;;;;;;;85.10;45.92;;;19.90;99.90;;;;;;12441618;28;20262;-41
2021/07/14 09:09:30;;;;;;;73.33;43.87;;;19.90;99.90;;;;;;12447809;28;20094;-42
2021/07/14 09:15:51;;;;;;;88.18;49.83;;;20.10;99.90;;;;;;12448000;28;20320;-40
2021/07/14 09:21:53;;;;;;;85.50;45.10;;;20.10;99.90;;;;;;12440305;28;20053;-40
2021/07/14 09:28:02;;;;;;;83.80;45.20;;;20.10;99.90;;;;;;12446550;28;20076;-41
2021/07/14 09:34:04;;;;;;;70.07;44.33;;;20.30;99.90;;;;;;12442576;28;20136;-44
2021/07/14 09:40:19;;;;;;;69.97;40.83;;;20.30;99.90;;;;;;12439421;28;20057;-42
2021/07/14 09:46:20;;;;;;;67.97;40.70;;;20.30;99.90;;;;;;12444385;28;20057;-41
2021/07/14 09:52:23;;;;;;;63.05;40.95;;;20.50;99.90;;;;;;12448522;28;20041;-42
2021/07/14 09:58:33;;;;;;;70.40;42.33;;;20.70;99.90;;;;;;12447175;28;20487;-42
2021/07/14 10:04:40;;;;;;;65.32;41.97;;;20.70;99.90;;;;;;12441072;28;20582;-43
2021/07/14 10:10:42;;;;;;;65.05;40.45;;;20.60;99.90;;;;;;12446765;28;20038;-47
2021/07/14 10:16:51;;;;;;;70.95;43.30;;;20.50;99.90;;;;;;12442909;28;20516;-43
2021/07/14 10:22:56;;;;;;;66.65;41.97;;;20.30;99.90;;;;;;12444454;28;20096;-44
2021/07/14 10:28:59;;;;;;;61.28;41.22;;;20.20;99.90;;;;;;12442629;28;20057;-44
2021/07/14 10:35:01;;;;;;;63.03;40.63;;;20.10;99.90;;;;;;12442419;28;20077;-42
2021/07/14 10:41:03;;;;;;;62.15;40.10;;;20.10;99.90;;;;;;12443712;28;20328;-43
2021/07/14 10:47:06;;;;;;;49.10;35.17;;;20.10;99.90;;;;;;12442181;28;20087;-44
2021/07/14 10:53:11;;;;;;;56.50;39.08;;;20.10;99.90;;;;;;12438304;28;20626;-44
2021/07/14 10:59:15;;;;;;;39.25;28.92;;;20.20;99.90;;;;;;12444704;28;20056;-43
2021/07/14 11:05:31;;;;;;;;;;;20.10;99.90;;;;;;12444771;28;20050;-43
2021/07/14 11:11:55;;;;;;;34.45;25.55;;;20.10;99.90;;;;;;12444799;28;19936;-43
2021/07/14 11:17:58;;;;;;;32.28;24.50;;;20.10;99.90;;;;;;12442888;28;20057;-43
2021/07/14 11:24:00;;;;;;;30.88;23.63;;;20.00;99.90;;;;;;12442616;28;20084;-44
2021/07/14 11:30:02;;;;;;;31.48;24.40;;;20.10;99.90;;;;;;12443651;28;20825;-43
2021/07/14 11:36:07;;;;;;;29.15;22.98;;;20.20;99.90;;;;;;12445685;28;20552;-43
2021/07/14 11:42:18;;;;;;;27.73;22.80;;;20.20;99.90;;;;;;12441876;28;20048;-43
2021/07/14 11:48:26;;;;;;;34.10;23.60;;;20.20;99.90;;;;;;12440414;28;20081;-44
2021/07/14 11:54:28;;;;;;;62.30;23.15;;;20.10;99.90;;;;;;12444692;28;20050;-44
2021/07/14 12:00:35;;;;;;;25.80;17.55;;;20.10;99.90;;;;;;12452243;28;20049;-43
2021/07/14 12:06:39;;;;;;;31.13;18.02;;;20.00;99.90;;;;;;12452711;28;20080;-42
2021/07/14 12:12:46;;;;;;;26.33;17.63;;;20.00;99.90;;;;;;12452165;28;20509;-44
2021/07/14 12:18:55;;;;;;;30.23;17.17;;;19.90;99.90;;;;;;12452638;28;20094;-43
2021/07/14 12:25:09;;;;;;;30.33;19.75;;;19.90;99.90;;;;;;12447929;28;20517;-43
2021/07/14 12:31:13;;;;;;;41.38;20.27;;;20.10;99.90;;;;;;12445582;28;20088;-43
2021/07/14 12:37:15;;;;;;;27.73;19.65;;;20.30;99.90;;;;;;12454983;28;20088;-46
2021/07/14 12:43:19;;;;;;;33.55;20.52;;;20.40;99.90;;;;;;12450523;28;20486;-43
2021/07/14 12:49:25;;;;;;;30.45;22.27;;;20.40;99.90;;;;;;12448231;28;20053;-43
2021/07/14 12:55:31;;;;;;;28.10;20.95;;;20.40;99.90;;;;;;12449715;28;20045;-44
2021/07/14 13:01:35;;;;;;;27.02;20.95;;;20.40;99.90;;;;;;12455443;28;20078;-43
2021/07/14 13:07:41;;;;;;;41.67;20.37;;;20.10;99.90;;;;;;12445501;28;20046;-43
2021/07/14 13:13:47;;;;;;;41.38;21.80;;;20.00;99.90;;;;;;12445141;28;20164;-43
2021/07/14 13:19:58;;;;;;;21.17;15.35;;;20.00;99.90;;;;;;12443091;28;20088;-43
2021/07/14 13:26:00;;;;;;;16.85;13.75;;;20.00;99.90;;;;;;12448827;28;20057;-43
2021/07/14 13:32:15;;;;;;;13.43;9.93;;;20.00;99.90;;;;;;12441607;28;20096;-42
2021/07/14 13:38:36;;;;;;;8.75;3.90;;;20.00;99.90;;;;;;12449829;28;20080;-43
2021/07/14 13:44:41;;;;;;;4.55;2.67;;;19.70;99.90;;;;;;12442003;28;20073;-45
2021/07/14 13:50:53;;;;;;;4.03;1.20;;;19.60;99.90;;;;;;12437571;28;20131;-44
2021/07/14 13:56:58;;;;;;;3.00;1.52;;;19.10;99.90;;;;;;12443041;28;20061;-43
2021/07/14 14:03:00;;;;;;;3.65;1.77;;;18.80;99.90;;;;;;12440974;28;20057;-43
2021/07/14 14:09:02;;;;;;;5.93;1.38;;;18.70;99.90;;;;;;12439938;28;20057;-43
2021/07/14 14:15:14;;;;;;;5.57;1.48;;;18.60;99.90;;;;;;12440213;28;20513;-44
2021/07/14 14:21:23;;;;;;;2.15;1.20;;;18.50;99.90;;;;;;12447929;28;20104;-45
2021/07/14 14:27:44;;;;;;;3.92;1.20;;;18.60;99.90;;;;;;12440201;28;20128;-44
2021/07/14 14:33:52;;;;;;;3.53;0.90;;;18.60;99.90;;;;;;12443718;28;20061;-43
2021/07/14 14:39:53;;;;;;;1.10;0.40;;;18.70;99.90;;;;;;12435292;28;20049;-43
2021/07/14 14:45:55;;;;;;;0.85;0.60;;;18.50;99.90;;;;;;12440271;28;20103;-43
2021/07/14 14:51:57;;;;;;;2.15;0.30;;;18.60;99.90;;;;;;12437133;28;20049;-43
2021/07/14 14:57:59;;;;;;;1.25;0.30;;;18.50;99.90;;;;;;12435700;28;20054;-44
2021/07/14 15:04:01;;;;;;;3.85;0.45;;;18.60;99.90;;;;;;12443366;28;20053;-43
2021/07/14 15:10:05;;;;;;;2.95;0.40;;;19.10;99.90;;;;;;12442723;28;20620;-42
2021/07/14 15:16:06;;;;;;;1.30;0.30;;;19.20;99.90;;;;;;12445452;28;20119;-43
2021/07/14 15:22:13;;;;;;;2.72;0.32;;;19.20;99.90;;;;;;12441439;28;20060;-45
2021/07/14 15:34:35;;;;;;;3.03;0.30;;;19.20;99.90;;;;;;12444678;28;20053;-43
2021/07/14 15:40:37;;;;;;;1.50;0.30;;;19.40;99.90;;;;;;12440443;28;20049;-45
2021/07/14 15:46:39;;;;;;;1.25;0.30;;;19.00;99.90;;;;;;12439530;28;20049;-44
2021/07/14 15:52:41;;;;;;;0.85;0.13;;;19.10;99.90;;;;;;12436114;28;20407;-42
2021/07/14 15:58:43;;;;;;;0.28;0.10;;;19.00;99.90;;;;;;12430231;28;20401;-43
2021/07/14 16:04:45;;;;;;;3.70;0.30;;;18.80;99.90;;;;;;12432044;28;20057;-43
2021/07/14 16:10:47;;;;;;;2.30;0.30;;;18.60;99.90;;;;;;12432359;28;20069;-44
2021/07/14 16:16:49;;;;;;;0.90;0.10;;;18.80;99.90;;;;;;12434323;28;20058;-46
2021/07/14 16:22:53;;;;;;;0.82;0.10;;;18.90;99.90;;;;;;12435584;28;20073;-44
2021/07/14 16:28:56;;;;;;;1.33;0.20;;;18.80;99.90;;;;;;12440456;28;20045;-43
2021/07/14 16:34:58;;;;;;;0.40;0.10;;;18.60;99.90;;;;;;12433876;28;20053;-43
2021/07/14 16:41:00;;;;;;;0.98;0.10;;;18.60;99.90;;;;;;12439308;28;20042;-43
2021/07/14 16:47:02;;;;;;;0.70;0.43;;;18.50;99.90;;;;;;12441475;28;20773;-44
2021/07/14 16:53:04;;;;;;;0.57;0.20;;;18.40;99.90;;;;;;12444303;28;20678;-43
2021/07/14 16:59:09;;;;;;;0.60;0.20;;;18.40;99.90;;;;;;12442680;28;20080;-44
2021/07/14 17:05:12;;;;;;;4.45;0.30;;;18.30;99.90;;;;;;12446142;28;20038;-43
2021/07/14 17:11:14;;;;;;;3.42;0.38;;;18.20;99.90;;;;;;12440534;28;20038;-44
2021/07/14 17:17:16;;;;;;;9.98;0.60;;;18.30;99.90;;;;;;12442618;28;20099;-43
2021/07/14 17:23:18;;;;;;;1.13;0.30;;;18.30;99.90;;;;;;12439049;28;20079;-42
2021/07/14 17:29:20;;;;;;;1.75;0.30;;;18.30;99.90;;;;;;12447930;28;20140;-40
2021/07/14 17:35:22;;;;;;;2.53;0.50;;;18.30;99.90;;;;;;12446157;28;20057;-44
2021/07/14 17:41:24;;;;;;;3.38;0.32;;;18.20;99.90;;;;;;12444109;28;20118;-40
2021/07/14 17:47:26;;;;;;;7.70;0.60;;;18.20;99.90;;;;;;12436939;28;20627;-41
2021/07/14 17:53:28;;;;;;;1.98;0.30;;;18.20;99.90;;;;;;12441116;28;20394;-40
2021/07/14 17:59:30;;;;;;;6.75;0.55;;;18.20;99.90;;;;;;12438447;28;20094;-40
2021/07/14 18:05:34;;;;;;;1.75;0.30;;;18.20;99.90;;;;;;12442104;28;20581;-42
2021/07/14 18:11:36;;;;;;;;;;;18.20;99.90;;;;;;12438764;28;20067;-41
2021/07/14 18:17:46;;;;;;;6.88;0.95;;;18.20;99.90;;;;;;12437060;28;19939;-42
2021/07/14 18:23:48;;;;;;;2.50;0.98;;;18.20;99.90;;;;;;12436082;28;20114;-43
2021/07/14 18:29:50;;;;;;;3.30;0.85;;;18.10;99.90;;;;;;12441804;28;20045;-41
2021/07/14 18:35:52;;;;;;;7.53;1.00;;;18.00;99.90;;;;;;12438992;28;20058;-42
2021/07/14 18:41:54;;;;;;;2.25;1.10;;;18.00;99.90;;;;;;12445855;28;20571;-42
2021/07/14 18:48:01;;;;;;;5.28;1.27;;;18.00;99.90;;;;;;12439102;28;20090;-40
2021/07/14 18:54:02;;;;;;;2.53;1.33;;;17.90;99.90;;;;;;12437470;28;20053;-42
2021/07/14 19:00:08;;;;;;;5.07;1.40;;;17.70;99.90;;;;;;12440402;28;20057;-42
2021/07/14 19:06:10;;;;;;;6.50;1.60;;;17.70;99.90;;;;;;12439748;28;20061;-43
2021/07/14 19:12:12;;;;;;;4.18;1.55;;;17.60;99.90;;;;;;12438018;28;20045;-40
2021/07/14 19:18:15;;;;;;;3.53;1.70;;;17.60;99.90;;;;;;12437770;28;20098;-41
2021/07/14 19:24:17;;;;;;;4.28;2.17;;;17.60;99.90;;;;;;12445234;28;20095;-42
2021/07/14 19:30:22;;;;;;;7.57;2.00;;;17.60;99.90;;;;;;12442864;28;20898;-41
2021/07/14 19:36:25;;;;;;;8.70;2.08;;;17.50;99.90;;;;;;12444090;28;20383;-40
2021/07/14 19:42:28;;;;;;;8.48;2.00;;;17.40;99.90;;;;;;12435751;28;20079;-42
2021/07/14 19:48:30;;;;;;;8.37;2.00;;;17.40;99.90;;;;;;12439491;28;20050;-44
2021/07/14 19:54:32;;;;;;;7.68;2.22;;;17.30;99.90;;;;;;12439738;28;20045;-42
2021/07/14 20:00:34;;;;;;;9.23;2.50;;;17.30;99.90;;;;;;12441675;28;20046;-41
2021/07/14 20:06:36;;;;;;;7.32;2.30;;;17.20;99.90;;;;;;12436092;28;20103;-43
2021/07/14 20:12:38;;;;;;;9.80;2.50;;;17.20;99.90;;;;;;12448080;28;20117;-41
2021/07/14 20:18:40;;;;;;;11.90;2.10;;;17.20;99.90;;;;;;12451187;28;20120;-42
2021/07/14 20:24:43;;;;;;;11.80;2.45;;;17.20;99.90;;;;;;12443774;28;20087;-43
2021/07/14 20:30:45;;;;;;;9.35;2.53;;;17.10;99.90;;;;;;12452166;28;20054;-40
2021/07/14 20:36:47;;;;;;;10.23;2.95;;;17.10;99.90;;;;;;12450641;28;20560;-42
2021/07/14 20:42:49;;;;;;;5.30;2.47;;;17.10;99.90;;;;;;12449174;28;20049;-45
2021/07/14 20:48:51;;;;;;;8.65;2.88;;;17.00;99.90;;;;;;12443999;28;20045;-40
2021/07/14 20:54:53;;;;;;;8.90;2.95;;;16.90;99.90;;;;;;12446943;28;20281;-41
2021/07/14 21:00:55;;;;;;;8.13;3.00;;;16.90;99.90;;;;;;12446565;28;20049;-42
2021/07/14 21:06:57;;;;;;;10.07;3.22;;;16.80;99.90;;;;;;12447679;28;20069;-40
2021/07/14 21:12:59;;;;;;;10.13;2.67;;;16.80;99.90;;;;;;12447304;28;20053;-41
2021/07/14 21:19:01;;;;;;;8.90;2.65;;;16.70;99.90;;;;;;12446590;28;20498;-40
2021/07/14 21:25:06;;;;;;;10.27;2.67;;;16.80;99.90;;;;;;12445134;28;20616;-41
2021/07/14 21:31:08;;;;;;;9.95;2.28;;;16.80;99.90;;;;;;12438297;28;20050;-40
2021/07/14 21:37:10;;;;;;;16.05;2.80;;;16.70;99.90;;;;;;12446567;28;20468;-41
2021/07/14 21:43:12;;;;;;;14.35;2.67;;;16.70;99.90;;;;;;12442698;28;20045;-40
2021/07/14 21:49:14;;;;;;;12.48;2.42;;;16.70;99.90;;;;;;12444385;28;20058;-44
2021/07/14 21:55:19;;;;;;;9.63;2.28;;;16.60;99.90;;;;;;12439374;28;20049;-40
2021/07/14 22:01:21;;;;;;;9.98;2.20;;;16.60;99.90;;;;;;12445565;28;20049;-40
2021/07/14 22:07:23;;;;;;;8.98;2.33;;;16.50;99.90;;;;;;12446330;28;20041;-41
2021/07/14 22:13:27;;;;;;;10.18;3.50;;;16.50;99.90;;;;;;12442726;28;20490;-40
2021/07/14 22:19:29;;;;;;;8.30;2.50;;;16.40;99.90;;;;;;12444258;28;20419;-40
2021/07/14 22:25:33;;;;;;;12.50;2.85;;;16.40;99.90;;;;;;12446277;28;20136;-41
2021/07/14 22:31:41;;;;;;;10.33;2.67;;;16.40;99.90;;;;;;12444509;28;20045;-41
2021/07/14 22:37:46;;;;;;;12.52;2.60;;;16.40;99.90;;;;;;12446582;28;20080;-40
2021/07/14 22:43:48;;;;;;;6.70;2.65;;;16.40;99.90;;;;;;12435222;28;20045;-40
2021/07/14 22:49:50;;;;;;;10.65;2.47;;;16.40;99.90;;;;;;12441010;28;20124;-40
2021/07/14 22:55:52;;;;;;;5.18;2.70;;;16.70;99.90;;;;;;12433282;28;20425;-47
2021/07/14 23:01:54;;;;;;;8.40;2.50;;;16.70;99.90;;;;;;12439128;28;20105;-42
2021/07/14 23:07:57;;;;;;;8.40;2.83;;;16.80;99.90;;;;;;12439307;28;20054;-40
2021/07/14 23:13:59;;;;;;;9.00;2.70;;;17.00;99.90;;;;;;12432302;28;20057;-43
2021/07/14 23:20:02;;;;;;;14.32;2.88;;;16.90;99.90;;;;;;12438678;28;20506;-40
2021/07/14 23:26:03;;;;;;;10.75;2.72;;;16.80;99.90;;;;;;12441919;28;20053;-42
2021/07/14 23:32:06;;;;;;;12.25;2.63;;;16.60;99.90;;;;;;12434508;28;20123;-40
2021/07/14 23:38:08;;;;;;;8.70;2.40;;;16.60;99.90;;;;;;12435630;28;20053;-40
2021/07/14 23:44:10;;;;;;;9.20;2.38;;;16.60;99.90;;;;;;12431388;28;20045;-40
2021/07/14 23:50:14;;;;;;;18.38;2.42;;;16.60;99.90;;;;;;12436239;28;20049;-41
2021/07/14 23:56:16;;;;;;;;;;;16.70;99.90;;;;;;12434715;28;20054;-40
